Погода Пропастина неделю

Тверская область, Россия

24 - 30 мая
  • 24мая
    Сегодня
    +9°
    +24°
    Практически безоблачно
    ВремяПогодаТемператураВлажностьДавлениеВетер, м/сВероятность осадков
    00:00Ясно и безоблачно+7°C65 %758 мм2.4 м/с2 %
    03:00Ясно и безоблачно+7°C68 %758 мм2.0 м/с2 %
    06:00Ясно и безоблачно+10°C71 %759 мм1.3 м/с2 %
    09:00Облачно с прояснениями+19°C50 %759 мм1.4 м/с2 %
    12:00Ясно и безоблачно+22°C35 %759 мм2.3 м/с2 %
    15:00Практически безоблачно+24°C32 %758 мм2.8 м/с2 %
    18:00Ясно и безоблачно+23°C35 %757 мм2.9 м/с2 %
    21:00Ясно и безоблачно+17°C48 %757 мм3.4 м/с2 %
  • 25мая
    Суббота
    +11°
    +25°
    Ясно и безоблачно
    ВремяПогодаТемператураВлажностьДавлениеВетер, м/сВероятность осадков
    00:00Ясно и безоблачно+11°C54 %757 мм3.3 м/с2 %
    03:00Ясно и безоблачно+10°C65 %757 мм3.5 м/с2 %
    06:00Ясно и безоблачно+13°C61 %757 мм3.4 м/с2 %
    09:00Ясно и безоблачно+20°C45 %756 мм3.8 м/с2 %
    12:00Ясно и безоблачно+22°C32 %755 мм4.6 м/с2 %
    15:00Ясно и безоблачно+24°C31 %754 мм4.5 м/с2 %
    18:00Небольшая облачность+24°C35 %753 мм4.2 м/с5 %
    21:00Практически безоблачно+18°C59 %753 мм1.8 м/с9 %
  • 26мая
    Воскресенье
    +6°
    +20°
    Облачно с прояснениями
    ВремяПогодаТемператураВлажностьДавлениеВетер, м/сВероятность осадков
    00:00Практически безоблачно+13°C77 %753 мм2.0 м/с5 %
    03:00Облачно с прояснениями+11°C96 %753 мм2.0 м/с14 %
    06:00Пасмурно, сплошная облачность+13°C90 %754 мм3.4 м/с27 %
    09:00Облачно с прояснениями+16°C63 %755 мм3.1 м/с31 %
    12:00Облачно с прояснениями+19°C36 %756 мм3.2 м/с14 %
    15:00Облачно с прояснениями+19°C32 %756 мм3.0 м/с4 %
    18:00Небольшая облачность+19°C36 %756 мм3.0 м/с2 %
    21:00Ясно и безоблачно+13°C52 %756 мм2.5 м/с2 %
  • 27мая
    Понедельник
    +7°
    +22°
    Небольшая облачность
    ВремяПогодаТемператураВлажностьДавлениеВетер, м/сВероятность осадков
    00:00Ясно и безоблачно+8°C57 %757 мм2.8 м/с2 %
    03:00Ясно и безоблачно+6°C66 %757 мм2.8 м/с2 %
    06:00Ясно и безоблачно+9°C66 %758 мм2.3 м/с2 %
    09:00Практически безоблачно+17°C41 %758 мм2.4 м/с2 %
    12:00Небольшая облачность+20°C33 %757 мм1.9 м/с2 %
    15:00Небольшая облачность+22°C31 %756 мм2.0 м/с2 %
    18:00Ясно и безоблачно+22°C34 %755 мм2.0 м/с3 %
    21:00Ясно и безоблачно+15°C60 %754 мм2.0 м/с2 %
  • 28мая
    Вторник
    +9°
    +26°
    Практически безоблачно
    ВремяПогодаТемператураВлажностьДавлениеВетер, м/сВероятность осадков
    00:00Ясно и безоблачно+10°C71 %754 мм2.0 м/с2 %
    03:00Ясно и безоблачно+8°C80 %754 мм2.0 м/с2 %
    06:00Ясно и безоблачно+11°C73 %754 мм2.1 м/с2 %
    09:00Ясно и безоблачно+22°C43 %754 мм2.0 м/с2 %
    12:00Ясно и безоблачно+25°C36 %754 мм1.5 м/с5 %
    15:00Практически безоблачно+25°C32 %752 мм1.6 м/с10 %
    18:00Ясно и безоблачно+24°C35 %751 мм2.9 м/с12 %
    21:00Ясно и безоблачно+18°C52 %751 мм2.4 м/с3 %
Мы используем cookies
Соглашаюсь